createdAt,value
2022-12-12T00:00:24.439Z,0.71
2022-12-12T00:02:54.642Z,0.67
2022-12-12T00:05:22.314Z,0.69
2022-12-12T00:07:49.864Z,0.70
2022-12-12T00:10:16.854Z,0.66
2022-12-12T00:12:43.868Z,0.67
2022-12-12T00:15:11.460Z,0.63
2022-12-12T00:17:38.670Z,0.67
2022-12-12T00:20:06.238Z,0.68
2022-12-12T00:22:33.368Z,0.66
2022-12-12T00:25:00.371Z,0.64
2022-12-12T00:27:27.365Z,0.65
2022-12-12T00:29:55.234Z,0.63
2022-12-12T00:32:22.462Z,0.60
2022-12-12T00:34:50.018Z,0.63
2022-12-12T00:37:17.289Z,0.61
2022-12-12T00:39:44.274Z,0.63
2022-12-12T00:42:11.260Z,0.64
2022-12-12T00:44:38.261Z,0.64
2022-12-12T00:47:05.438Z,0.65
2022-12-12T00:49:32.396Z,0.64
2022-12-12T00:51:59.272Z,0.67
2022-12-12T00:54:26.243Z,0.69
2022-12-12T00:56:53.307Z,0.67
2022-12-12T00:59:20.181Z,0.74
2022-12-12T01:01:47.398Z,0.72
2022-12-12T01:04:14.834Z,0.74
2022-12-12T01:06:41.970Z,0.74
2022-12-12T01:09:09.163Z,0.76
2022-12-12T01:11:36.227Z,0.79
2022-12-12T01:14:03.225Z,0.79
2022-12-12T01:16:30.801Z,0.79
2022-12-12T01:18:58.242Z,0.78
2022-12-12T01:21:25.431Z,0.79
2022-12-12T01:23:52.449Z,0.79
2022-12-12T01:26:22.691Z,0.78
2022-12-12T01:28:50.374Z,0.77
2022-12-12T01:31:17.965Z,0.79
2022-12-12T01:33:46.524Z,0.79
2022-12-12T01:36:18.284Z,0.83
2022-12-12T01:38:46.744Z,0.84
2022-12-12T01:41:14.643Z,0.83
2022-12-12T01:43:41.702Z,0.82
2022-12-12T01:46:33.597Z,0.86
2022-12-12T01:49:14.015Z,0.84
2022-12-12T01:51:42.420Z,0.84
2022-12-12T01:54:13.917Z,0.86
2022-12-12T01:56:43.187Z,0.86
2022-12-12T01:59:12.225Z,0.88
2022-12-12T02:01:39.859Z,0.95
2022-12-12T02:04:08.028Z,0.94
2022-12-12T02:06:35.516Z,0.98
2022-12-12T02:09:05.568Z,0.97
2022-12-12T02:11:35.216Z,0.98
2022-12-12T02:14:02.240Z,1.01
2022-12-12T02:16:47.394Z,1.01
2022-12-12T02:19:14.340Z,1.04
2022-12-12T02:21:57.484Z,1.06
2022-12-12T02:24:56.912Z,1.05
2022-12-12T02:27:59.234Z,1.04
2022-12-12T02:30:43.989Z,1.04
2022-12-12T02:33:25.672Z,1.03
2022-12-12T02:36:15.560Z,1.04
2022-12-12T02:39:01.622Z,1.06
2022-12-12T02:41:39.597Z,1.03
2022-12-12T02:44:11.408Z,1.02
2022-12-12T02:47:16.603Z,1.03
2022-12-12T02:49:50.462Z,1.06
2022-12-12T02:52:17.947Z,1.12
2022-12-12T02:54:45.322Z,1.11
2022-12-12T02:57:22.982Z,1.07
2022-12-12T02:59:56.327Z,1.15
2022-12-12T03:05:53.222Z,1.16
2022-12-12T03:08:49.043Z,1.17
2022-12-12T03:11:23.108Z,1.14
2022-12-12T03:13:57.928Z,1.12
2022-12-12T03:16:29.297Z,1.17
2022-12-12T03:19:00.987Z,1.15
2022-12-12T03:21:42.066Z,1.20
2022-12-12T03:24:22.518Z,1.23
2022-12-12T03:26:54.791Z,1.25
2022-12-12T03:29:28.900Z,1.24
2022-12-12T03:32:00.498Z,1.25
2022-12-12T03:34:34.055Z,1.27
2022-12-12T03:37:34.697Z,1.29
2022-12-12T03:40:05.670Z,1.23
2022-12-12T03:42:52.655Z,1.26
2022-12-12T03:46:13.397Z,1.32
2022-12-12T03:48:48.064Z,1.27
2022-12-12T03:51:26.259Z,1.27
2022-12-12T03:53:59.817Z,1.27
2022-12-12T03:56:31.174Z,1.27
2022-12-12T03:59:04.183Z,1.27
2022-12-12T04:01:41.870Z,1.25
2022-12-12T04:04:15.769Z,1.25
2022-12-12T04:06:50.807Z,1.25
2022-12-12T04:09:38.124Z,1.21
2022-12-12T04:12:58.206Z,1.23
2022-12-12T04:15:40.000Z,1.20
2022-12-12T04:18:20.745Z,1.23
2022-12-12T04:21:21.709Z,1.24
2022-12-12T04:24:03.968Z,1.15
2022-12-12T04:26:41.043Z,1.19
2022-12-12T04:29:42.944Z,1.20
2022-12-12T04:32:25.294Z,1.20
2022-12-12T04:34:58.776Z,1.14
2022-12-12T04:37:56.158Z,1.20
2022-12-12T04:40:29.695Z,1.14
2022-12-12T04:43:01.257Z,1.16
2022-12-12T04:45:32.315Z,1.20
2022-12-12T04:48:00.456Z,1.14
2022-12-12T04:50:28.845Z,1.20
2022-12-12T04:52:57.341Z,1.24
2022-12-12T04:55:27.877Z,1.22
2022-12-12T04:57:56.640Z,1.23
2022-12-12T05:00:25.487Z,1.23
2022-12-12T05:03:28.733Z,1.23
2022-12-12T05:05:58.883Z,1.17
2022-12-12T05:08:30.017Z,1.22
2022-12-12T05:11:01.358Z,1.23
2022-12-12T05:13:32.534Z,1.23
2022-12-12T05:16:01.143Z,1.23
2022-12-12T05:18:28.256Z,1.23
2022-12-12T05:20:55.295Z,1.21
2022-12-12T05:23:22.627Z,1.19
2022-12-12T05:25:49.710Z,1.22
2022-12-12T05:28:24.296Z,1.20
2022-12-12T05:30:51.413Z,1.21
2022-12-12T05:33:18.441Z,1.23
2022-12-12T05:35:45.355Z,1.19
2022-12-12T05:38:12.365Z,1.21
2022-12-12T05:40:39.326Z,1.24
2022-12-12T05:43:06.267Z,1.21
2022-12-12T05:45:33.670Z,1.20
2022-12-12T05:48:00.745Z,1.20
2022-12-12T05:50:27.966Z,1.20
2022-12-12T05:52:55.045Z,1.17
2022-12-12T05:55:22.028Z,1.18
2022-12-12T05:57:49.165Z,1.15
2022-12-12T06:00:16.943Z,1.15
2022-12-12T06:02:44.273Z,1.15
2022-12-12T06:05:12.714Z,1.16
2022-12-12T06:07:41.726Z,1.14
2022-12-12T06:10:09.252Z,1.13
2022-12-12T06:12:36.259Z,1.17
2022-12-12T06:15:03.658Z,1.16
2022-12-12T06:17:33.331Z,1.16
2022-12-12T06:20:01.086Z,1.16
2022-12-12T06:22:28.407Z,1.11
2022-12-12T06:24:57.063Z,1.16
2022-12-12T06:27:24.650Z,1.19
2022-12-12T06:29:51.938Z,1.15
2022-12-12T06:32:19.252Z,1.14
2022-12-12T06:34:46.415Z,1.02
2022-12-12T06:37:17.250Z,1.11
2022-12-12T06:39:45.158Z,1.13
2022-12-12T06:42:12.206Z,1.13
2022-12-12T06:44:39.286Z,1.11
2022-12-12T06:47:12.562Z,1.13
2022-12-12T06:49:39.785Z,1.09
2022-12-12T06:52:06.893Z,1.17
2022-12-12T06:54:33.914Z,1.16
2022-12-12T06:57:03.537Z,1.07
2022-12-12T06:59:30.575Z,1.20
2022-12-12T07:01:58.130Z,1.20
2022-12-12T07:04:26.094Z,1.20
2022-12-12T07:06:53.369Z,1.20
2022-12-12T07:09:20.873Z,1.11
2022-12-12T07:11:48.028Z,1.22
2022-12-12T07:14:15.184Z,1.24
2022-12-12T07:16:42.217Z,1.24
2022-12-12T07:19:11.248Z,1.25
2022-12-12T07:21:39.356Z,1.23
2022-12-12T07:24:06.761Z,1.28
2022-12-12T07:26:33.834Z,1.29
2022-12-12T07:29:03.785Z,1.33
2022-12-12T07:31:30.980Z,1.35
2022-12-12T07:33:58.057Z,1.37
2022-12-12T07:36:25.045Z,1.40
2022-12-12T07:38:52.237Z,1.35
2022-12-12T07:41:20.996Z,1.34
2022-12-12T07:43:52.417Z,1.30
2022-12-12T07:46:24.351Z,1.32
2022-12-12T07:48:54.327Z,1.34
2022-12-12T07:51:21.691Z,1.33
2022-12-12T07:53:49.132Z,1.35
2022-12-12T07:56:18.127Z,1.40
2022-12-12T07:58:45.652Z,1.41
2022-12-12T08:01:21.090Z,1.39
2022-12-12T08:03:48.962Z,1.36
2022-12-12T08:06:17.008Z,1.33
2022-12-12T08:08:50.542Z,1.37
2022-12-12T08:11:19.706Z,1.35
2022-12-12T08:13:47.148Z,1.32
2022-12-12T08:16:23.043Z,1.33
2022-12-12T08:18:50.319Z,1.35
2022-12-12T08:21:23.242Z,1.40
2022-12-12T08:23:56.051Z,1.41
2022-12-12T08:26:23.098Z,1.41
2022-12-12T08:28:53.716Z,1.41
2022-12-12T08:31:21.586Z,1.41
2022-12-12T08:33:50.879Z,1.44
2022-12-12T08:36:21.117Z,1.44
2022-12-12T08:38:48.588Z,1.47
2022-12-12T08:41:16.340Z,1.43
2022-12-12T08:43:43.811Z,1.44
2022-12-12T08:46:17.813Z,1.41
2022-12-12T08:48:46.590Z,1.41
2022-12-12T08:51:14.675Z,1.43
2022-12-12T08:53:47.664Z,1.44
2022-12-12T08:56:19.758Z,1.40
2022-12-12T08:58:47.133Z,1.43
2022-12-12T09:01:22.785Z,1.43
2022-12-12T09:03:51.436Z,1.48
2022-12-12T09:06:18.924Z,1.48
2022-12-12T09:08:46.234Z,1.50
2022-12-12T09:11:15.177Z,1.48
2022-12-12T09:13:45.809Z,1.44
2022-12-12T09:16:15.636Z,1.49
2022-12-12T09:18:49.148Z,1.48
2022-12-12T09:21:17.780Z,1.44
2022-12-12T09:23:51.479Z,1.47
2022-12-12T09:26:18.480Z,1.42
2022-12-12T09:28:47.921Z,1.54
2022-12-12T09:31:15.245Z,1.52
2022-12-12T09:33:43.116Z,1.62
2022-12-12T09:36:12.246Z,1.63
2022-12-12T09:38:39.396Z,1.65
2022-12-12T09:41:20.783Z,1.66
2022-12-12T09:43:53.903Z,1.62
2022-12-12T09:46:39.067Z,1.66
2022-12-12T09:49:06.058Z,1.66
2022-12-12T09:51:33.266Z,1.62
2022-12-12T09:54:00.579Z,1.60
2022-12-12T09:56:47.247Z,1.63
2022-12-12T09:59:27.274Z,1.65
2022-12-12T10:02:23.501Z,1.66
2022-12-12T10:04:51.165Z,1.65
2022-12-12T10:07:27.558Z,1.63
2022-12-12T10:10:26.441Z,1.63
2022-12-12T10:12:57.731Z,1.62
2022-12-12T10:15:40.940Z,1.64
2022-12-12T10:18:15.362Z,1.70
2022-12-12T10:20:55.746Z,1.64
2022-12-12T10:23:42.479Z,1.74
2022-12-12T10:26:16.456Z,1.60
2022-12-12T10:28:43.715Z,1.68
2022-12-12T10:31:34.912Z,1.69
2022-12-12T10:34:17.092Z,1.70
2022-12-12T10:36:59.251Z,1.72
2022-12-12T10:39:49.849Z,1.72
2022-12-12T10:42:40.593Z,1.76
2022-12-12T10:45:36.613Z,1.74
2022-12-12T10:48:18.466Z,1.73
2022-12-12T10:50:49.333Z,1.69
2022-12-12T10:53:16.407Z,1.73
2022-12-12T10:55:53.828Z,1.69
2022-12-12T10:58:26.473Z,1.66
2022-12-12T11:01:01.898Z,1.63
2022-12-12T11:03:34.613Z,1.66
2022-12-12T11:06:05.517Z,1.69
2022-12-12T11:08:41.085Z,1.64
2022-12-12T11:11:21.440Z,1.60
2022-12-12T11:13:55.805Z,1.63
2022-12-12T11:16:31.040Z,1.64
2022-12-12T11:19:06.965Z,1.63
2022-12-12T11:21:36.496Z,1.61
2022-12-12T11:24:08.438Z,1.60
2022-12-12T11:26:46.289Z,1.59
2022-12-12T11:29:34.930Z,1.60
2022-12-12T11:32:13.655Z,1.58
2022-12-12T11:34:46.623Z,1.55
2022-12-12T11:37:16.379Z,1.56
2022-12-12T11:39:45.688Z,1.57
2022-12-12T11:42:15.932Z,1.60
2022-12-12T11:44:44.736Z,1.61
2022-12-12T11:47:38.557Z,1.59
2022-12-12T11:50:20.444Z,1.53
2022-12-12T11:52:48.498Z,1.48
2022-12-12T11:55:43.233Z,1.50
2022-12-12T11:58:17.965Z,1.54
2022-12-12T12:01:11.620Z,1.50
2022-12-12T12:04:10.769Z,1.51
2022-12-12T12:07:07.109Z,1.51
2022-12-12T12:09:51.593Z,1.52
2022-12-12T12:12:28.350Z,1.49
2022-12-12T12:15:01.447Z,1.47
2022-12-12T12:17:57.970Z,1.44
2022-12-12T12:20:58.302Z,1.41
2022-12-12T12:23:50.536Z,1.42
2022-12-12T12:26:42.539Z,1.38
2022-12-12T12:29:35.550Z,1.35
2022-12-12T12:32:25.641Z,1.32
2022-12-12T12:35:14.828Z,1.33
2022-12-12T12:38:06.277Z,1.28
2022-12-12T12:41:03.512Z,1.28
2022-12-12T12:43:46.238Z,1.28
2022-12-12T12:46:21.425Z,1.28
2022-12-12T12:48:59.216Z,1.24
2022-12-12T12:52:03.133Z,1.20
2022-12-12T12:54:40.804Z,1.25
2022-12-12T12:57:29.929Z,1.22
2022-12-12T13:00:05.007Z,1.21
2022-12-12T13:02:46.519Z,1.22
2022-12-12T13:05:24.085Z,1.17
2022-12-12T13:08:21.392Z,1.18
2022-12-12T13:10:51.823Z,1.18
2022-12-12T13:13:29.317Z,1.19
2022-12-12T13:16:03.294Z,1.13
2022-12-12T13:18:44.633Z,1.09
2022-12-12T13:21:24.749Z,1.10
2022-12-12T13:24:06.393Z,1.09
2022-12-12T13:26:56.227Z,1.15
2022-12-12T13:29:47.437Z,1.08
2022-12-12T13:32:45.157Z,1.04
2022-12-12T13:35:19.030Z,1.06
2022-12-12T13:37:50.381Z,1.01
2022-12-12T13:40:40.774Z,1.05
2022-12-12T13:43:41.584Z,1.03
2022-12-12T13:46:27.582Z,1.03
2022-12-12T13:49:13.109Z,0.96
2022-12-12T13:51:42.463Z,0.93
2022-12-12T13:54:34.102Z,0.90
2022-12-12T13:57:14.602Z,0.85
2022-12-12T13:59:53.764Z,0.81
2022-12-12T14:02:41.866Z,0.78
2022-12-12T14:05:15.306Z,0.72
2022-12-12T14:07:54.319Z,0.72
2022-12-12T14:10:32.560Z,0.75
2022-12-12T14:13:36.164Z,0.75
2022-12-12T14:16:26.384Z,0.70
2022-12-12T14:18:59.380Z,0.72
2022-12-12T14:21:47.870Z,0.67
2022-12-12T14:24:33.462Z,0.70
2022-12-12T14:27:05.254Z,0.57
2022-12-12T14:29:40.711Z,0.54
2022-12-12T14:32:20.151Z,0.63
2022-12-12T14:35:05.460Z,0.63
2022-12-12T14:37:40.359Z,0.62
2022-12-12T14:40:32.479Z,0.55
2022-12-12T14:43:41.334Z,0.58
2022-12-12T14:46:18.363Z,0.56
2022-12-12T14:48:46.211Z,0.54
2022-12-12T14:51:29.019Z,0.59
2022-12-12T14:53:59.212Z,0.60
2022-12-12T14:56:36.825Z,0.61
2022-12-12T14:59:09.480Z,0.59
2022-12-12T15:01:39.177Z,0.58
2022-12-12T15:04:09.562Z,0.56
2022-12-12T15:07:01.707Z,0.61
2022-12-12T15:09:34.344Z,0.61
2022-12-12T15:12:10.650Z,0.59
2022-12-12T15:14:40.279Z,0.59
2022-12-12T15:17:08.432Z,0.56
2022-12-12T15:19:44.943Z,0.51
2022-12-12T15:22:16.187Z,0.41
2022-12-12T15:24:44.354Z,0.50
2022-12-12T15:27:28.347Z,0.54
2022-12-12T15:29:56.662Z,0.42
2022-12-12T15:32:27.851Z,0.54
2022-12-12T15:35:02.944Z,0.55
2022-12-12T15:37:33.818Z,0.48
2022-12-12T15:40:26.026Z,0.49
2022-12-12T15:42:55.888Z,0.43
2022-12-12T15:45:40.944Z,0.51
2022-12-12T15:48:15.724Z,0.45
2022-12-12T15:50:42.785Z,0.51
2022-12-12T15:53:25.188Z,0.36
2022-12-12T15:55:58.318Z,0.49
2022-12-12T15:58:33.730Z,0.49
2022-12-12T16:01:20.824Z,0.48
2022-12-12T16:04:01.441Z,0.39
2022-12-12T16:06:34.790Z,0.43
2022-12-12T16:09:18.024Z,0.42
2022-12-12T16:11:50.457Z,0.50
2022-12-12T16:14:41.751Z,0.49
2022-12-12T16:17:18.634Z,0.50
2022-12-12T16:19:54.929Z,0.47
2022-12-12T16:22:40.360Z,0.39
2022-12-12T16:25:21.336Z,0.45
2022-12-12T16:28:12.662Z,0.54
2022-12-12T16:30:42.411Z,0.55
2022-12-12T16:33:21.585Z,0.58
2022-12-12T16:35:48.741Z,0.54
2022-12-12T16:38:17.887Z,0.56
2022-12-12T16:40:46.963Z,0.51
2022-12-12T16:43:15.733Z,0.54
2022-12-12T16:45:43.677Z,0.50
2022-12-12T16:48:24.243Z,0.51
2022-12-12T16:50:55.732Z,0.51
2022-12-12T16:53:23.094Z,0.55
2022-12-12T16:55:54.199Z,0.57
2022-12-12T16:58:24.308Z,0.52
2022-12-12T17:00:55.362Z,0.48
2022-12-12T17:03:24.007Z,0.60
2022-12-12T17:05:51.981Z,0.52
2022-12-12T17:08:23.156Z,0.43
2022-12-12T17:10:52.407Z,0.58
2022-12-12T17:13:40.522Z,0.53
2022-12-12T17:16:10.577Z,0.59
2022-12-12T17:18:37.743Z,0.56
2022-12-12T17:21:07.621Z,0.42
2022-12-12T17:23:34.888Z,0.41
2022-12-12T17:26:06.231Z,0.46
2022-12-12T17:28:34.715Z,0.55
2022-12-12T17:31:02.909Z,0.56
2022-12-12T17:33:30.484Z,0.56
2022-12-12T17:36:02.283Z,0.50
2022-12-12T17:38:30.843Z,0.55
2022-12-12T17:40:58.789Z,0.55
2022-12-12T17:43:26.113Z,0.51
2022-12-12T17:46:03.560Z,0.57
2022-12-12T17:48:35.174Z,0.54
2022-12-12T17:51:04.921Z,0.51
2022-12-12T17:53:38.530Z,0.47
2022-12-12T17:56:10.865Z,0.55
2022-12-12T17:58:40.509Z,0.48
2022-12-12T18:01:28.724Z,0.53
2022-12-12T18:03:56.207Z,0.39
2022-12-12T18:06:26.373Z,0.49
2022-12-12T18:08:54.715Z,0.53
2022-12-12T18:11:31.696Z,0.54
2022-12-12T18:14:01.470Z,0.52
2022-12-12T18:16:30.808Z,0.50
2022-12-12T18:18:58.544Z,0.54
2022-12-12T18:24:22.046Z,0.46
2022-12-12T18:26:53.710Z,0.54
2022-12-12T18:29:23.399Z,0.49
2022-12-12T18:31:50.806Z,0.52
2022-12-12T18:34:36.503Z,0.52
2022-12-12T18:37:04.595Z,0.47
2022-12-12T18:39:31.900Z,0.49
2022-12-12T18:41:58.892Z,0.51
2022-12-12T18:44:26.014Z,0.46
2022-12-12T18:46:53.021Z,0.54
2022-12-12T18:49:20.115Z,0.54
2022-12-12T18:51:52.869Z,0.42
2022-12-12T18:54:24.730Z,0.42
2022-12-12T18:56:56.876Z,0.32
2022-12-12T18:59:24.625Z,0.43
2022-12-12T19:01:52.439Z,0.34
2022-12-12T19:04:23.462Z,0.33
2022-12-12T19:06:55.451Z,0.42
2022-12-12T19:09:22.643Z,0.26
2022-12-12T19:11:50.001Z,0.34
2022-12-12T19:14:18.097Z,0.24
2022-12-12T19:16:45.780Z,0.24
2022-12-12T19:19:12.984Z,0.19
2022-12-12T19:21:41.209Z,0.11
2022-12-12T19:24:12.806Z,0.19
2022-12-12T19:26:43.842Z,0.12
2022-12-12T19:29:15.951Z,0.16
2022-12-12T19:31:45.645Z,0.17
2022-12-12T19:34:19.045Z,0.05
2022-12-12T19:36:46.220Z,-0.04
2022-12-12T19:39:15.896Z,0.07
2022-12-12T19:41:45.490Z,0.08
2022-12-12T19:44:13.552Z,0.07
2022-12-12T19:46:43.029Z,0.07
2022-12-12T19:49:13.188Z,-0.03
2022-12-12T19:51:45.689Z,0.10
2022-12-12T19:54:18.383Z,-0.01
2022-12-12T19:56:46.724Z,0.03
2022-12-12T19:59:23.741Z,0.04
2022-12-12T20:01:51.175Z,0.03
2022-12-12T20:04:26.198Z,0.11
2022-12-12T20:06:53.536Z,0.07
2022-12-12T20:09:31.807Z,0.11
2022-12-12T20:12:02.146Z,0.15
2022-12-12T20:14:31.842Z,0.19
2022-12-12T20:16:59.634Z,0.18
2022-12-12T20:19:27.491Z,0.18
2022-12-12T20:22:01.244Z,0.21
2022-12-12T20:24:29.155Z,0.19
2022-12-12T20:26:56.396Z,0.25
2022-12-12T20:29:23.837Z,0.17
2022-12-12T20:31:53.720Z,0.19
2022-12-12T20:34:26.260Z,0.17
2022-12-12T20:36:55.850Z,0.19
2022-12-12T20:39:25.311Z,0.17
2022-12-12T20:41:53.873Z,0.17
2022-12-12T20:44:22.776Z,0.17
2022-12-12T20:46:49.792Z,0.15
2022-12-12T20:49:19.998Z,0.15
2022-12-12T20:51:56.482Z,0.19
2022-12-12T20:54:25.981Z,0.16
2022-12-12T20:56:54.711Z,0.17
2022-12-12T20:59:22.723Z,0.18
2022-12-12T21:01:49.890Z,0.16
2022-12-12T21:04:18.347Z,0.16
2022-12-12T21:06:48.631Z,0.13
2022-12-12T21:09:24.534Z,0.16
2022-12-12T21:12:05.005Z,0.19
2022-12-12T21:14:35.217Z,0.16
2022-12-12T21:17:04.964Z,0.15
2022-12-12T21:19:33.306Z,0.12
2022-12-12T21:22:04.018Z,0.12
2022-12-12T21:24:33.109Z,0.14
2022-12-12T21:27:01.913Z,0.17
2022-12-12T21:29:28.923Z,0.16
2022-12-12T21:31:56.981Z,0.13
2022-12-12T21:34:24.002Z,0.16
2022-12-12T21:36:53.006Z,0.14
2022-12-12T21:39:39.167Z,0.08
2022-12-12T21:42:08.762Z,0.05
2022-12-12T21:44:45.366Z,0.12
2022-12-12T21:47:17.100Z,0.08
2022-12-12T21:49:52.553Z,0.13
2022-12-12T21:52:20.228Z,0.06
2022-12-12T21:54:47.636Z,0.13
2022-12-12T21:57:14.725Z,0.10
2022-12-12T21:59:43.184Z,-0.02
2022-12-12T22:02:15.007Z,0.05
2022-12-12T22:04:42.148Z,0.01
2022-12-12T22:07:12.401Z,0.10
2022-12-12T22:09:40.449Z,0.07
2022-12-12T22:12:09.106Z,0.07
2022-12-12T22:14:36.300Z,0.09
2022-12-12T22:17:04.700Z,0.06
2022-12-12T22:19:39.738Z,0.02
2022-12-12T22:22:08.277Z,-0.05
2022-12-12T22:24:35.337Z,-0.09
2022-12-12T22:27:03.282Z,0.03
2022-12-12T22:29:30.789Z,-0.02
2022-12-12T22:32:00.256Z,0.05
2022-12-12T22:34:30.915Z,-0.06
2022-12-12T22:36:58.054Z,0.05
2022-12-12T22:39:27.644Z,-0.05
2022-12-12T22:41:55.633Z,0.05
2022-12-12T22:44:24.291Z,0.03
2022-12-12T22:46:54.490Z,-0.04
2022-12-12T22:49:26.040Z,-0.10
2022-12-12T22:51:55.299Z,-0.03
2022-12-12T22:54:22.650Z,-0.02
2022-12-12T22:56:49.700Z,-0.05
2022-12-12T22:59:17.151Z,-0.08
2022-12-12T23:01:44.248Z,-0.10
2022-12-12T23:04:14.865Z,-0.17
2022-12-12T23:06:42.939Z,-0.15
2022-12-12T23:09:36.994Z,-0.11
2022-12-12T23:12:04.203Z,-0.26
2022-12-12T23:14:31.766Z,-0.25
2022-12-12T23:16:58.912Z,-0.22
2022-12-12T23:19:26.300Z,-0.28
2022-12-12T23:21:53.349Z,-0.27
2022-12-12T23:24:20.639Z,-0.20
2022-12-12T23:26:50.932Z,-0.30
2022-12-12T23:29:20.209Z,-0.28
2022-12-12T23:31:47.951Z,-0.24
2022-12-12T23:34:20.707Z,-0.25
2022-12-12T23:36:50.731Z,-0.21
2022-12-12T23:39:18.883Z,-0.17
2022-12-12T23:41:45.943Z,-0.23
2022-12-12T23:44:14.490Z,-0.17
2022-12-12T23:46:41.606Z,-0.15
2022-12-12T23:49:14.012Z,-0.16
2022-12-12T23:51:46.295Z,-0.13
2022-12-12T23:54:18.890Z,-0.20
2022-12-12T23:56:46.814Z,-0.17
2022-12-12T23:59:17.897Z,-0.22
